Time;durP1;ratioP1;P1;durP2;ratioP2;P2;SDS_P1;SDS_P2;PMS_P1;PMS_P2;Temp;Humidity;BMP_temperature;BMP_pressure;BME280_temperature;BME280_humidity;BME280_pressure;Samples;Min_cycle;Max_cycle;Signal;HPM_P1;HPM_P2
2023/05/24 00:01:36;;;;;;;13.38;2.80;;;12.40;99.50;;;;;;5020814;28;20033;-66
2023/05/24 00:04:02;;;;;;;11.55;2.20;;;12.40;99.60;;;;;;5022509;28;20707;-66
2023/05/24 00:06:29;;;;;;;8.23;2.30;;;12.40;99.00;;;;;;5022633;28;20148;-67
2023/05/24 00:08:54;;;;;;;11.88;2.63;;;12.40;99.00;;;;;;5022468;28;20040;-67
2023/05/24 00:11:23;;;;;;;10.90;2.70;;;12.40;99.20;;;;;;5023521;28;20033;-67
2023/05/24 00:13:49;;;;;;;12.35;2.55;;;12.40;99.10;;;;;;5023974;28;20033;-67
2023/05/24 00:16:15;;;;;;;10.30;2.65;;;12.40;98.80;;;;;;5023361;28;20099;-67
2023/05/24 00:18:40;;;;;;;13.30;2.58;;;12.40;98.90;;;;;;5006349;28;20030;-66
2023/05/24 00:21:07;;;;;;;11.90;2.38;;;12.40;99.00;;;;;;5017666;28;20820;-67
2023/05/24 00:23:33;;;;;;;11.70;2.78;;;12.40;99.00;;;;;;5020983;28;20040;-65
2023/05/24 00:26:00;;;;;;;9.57;2.42;;;12.50;98.90;;;;;;5020868;28;20041;-66
2023/05/24 00:28:26;;;;;;;8.73;2.03;;;12.40;98.90;;;;;;5020437;28;20041;-67
2023/05/24 00:30:52;;;;;;;12.55;2.22;;;12.50;98.60;;;;;;5013021;28;20486;-66
2023/05/24 00:33:18;;;;;;;9.43;2.88;;;12.50;98.60;;;;;;5001345;28;20044;-66
2023/05/24 00:35:44;;;;;;;10.38;2.22;;;12.50;99.00;;;;;;5004236;28;20050;-67
2023/05/24 00:38:10;;;;;;;11.60;2.45;;;12.50;98.80;;;;;;5020919;28;20452;-66
2023/05/24 00:40:36;;;;;;;7.22;2.15;;;12.50;98.70;;;;;;5003293;28;20033;-66
2023/05/24 00:43:02;;;;;;;10.65;2.30;;;12.50;98.80;;;;;;5003297;28;20413;-65
2023/05/24 00:45:28;;;;;;;13.30;2.30;;;12.50;98.80;;;;;;5021472;28;20056;-66
2023/05/24 00:47:53;;;;;;;9.43;2.40;;;12.50;98.70;;;;;;5003114;28;20055;-66
2023/05/24 00:50:20;;;;;;;15.02;2.40;;;12.60;98.80;;;;;;5003545;28;20124;-66
2023/05/24 00:52:48;;;;;;;7.68;1.80;;;12.60;98.70;;;;;;5021439;28;20033;-65
2023/05/24 00:55:14;;;;;;;13.52;2.53;;;12.50;98.90;;;;;;5003848;28;20132;-66
2023/05/24 00:57:40;;;;;;;8.80;2.40;;;12.50;98.70;;;;;;5021610;28;20076;-65
2023/05/24 01:00:10;;;;;;;11.23;2.47;;;12.50;98.20;;;;;;5019841;28;20037;-67
2023/05/24 01:02:36;;;;;;;8.00;1.88;;;12.50;97.80;;;;;;5021759;28;20768;-65
2023/05/24 01:05:03;;;;;;;9.75;2.05;;;12.50;97.90;;;;;;4987921;28;20030;-66
2023/05/24 01:07:49;;;;;;;9.10;2.80;;;12.40;98.10;;;;;;5000808;28;20390;-64
2023/05/24 01:10:24;;;;;;;8.98;2.33;;;12.50;98.20;;;;;;5001171;28;20737;-66
2023/05/24 01:13:11;;;;;;;12.50;2.17;;;12.50;98.00;;;;;;5001366;28;20145;-66
2023/05/24 01:15:43;;;;;;;11.02;2.67;;;12.50;97.80;;;;;;5001409;28;20134;-66
2023/05/24 01:18:20;;;;;;;11.75;2.05;;;12.50;97.50;;;;;;4983010;28;20843;-66
2023/05/24 01:20:51;;;;;;;12.10;2.58;;;12.50;97.70;;;;;;4985400;28;20181;-66
2023/05/24 01:23:38;;;;;;;6.13;1.98;;;12.60;97.90;;;;;;5001192;28;20130;-66
2023/05/24 01:26:25;;;;;;;8.75;2.13;;;12.60;98.00;;;;;;5001369;28;20026;-65
2023/05/24 01:28:53;;;;;;;8.95;2.30;;;12.60;98.10;;;;;;5004380;28;20040;-66
2023/05/24 01:31:20;;;;;;;8.25;2.00;;;12.60;98.00;;;;;;4987238;28;20034;-67
2023/05/24 01:33:48;;;;;;;13.23;2.13;;;12.60;97.90;;;;;;4987233;28;20042;-65
2023/05/24 01:36:17;;;;;;;9.77;2.28;;;12.60;97.80;;;;;;5012120;28;20029;-67
2023/05/24 01:38:44;;;;;;;10.70;2.50;;;12.60;98.00;;;;;;5024683;28;20041;-66
2023/05/24 01:41:33;;;;;;;8.40;2.00;;;12.60;98.20;;;;;;5024249;28;20033;-65
2023/05/24 01:44:24;;;;;;;10.60;2.20;;;12.60;98.20;;;;;;5024447;28;20095;-65
2023/05/24 01:47:00;;;;;;;11.85;2.67;;;12.60;97.60;;;;;;5024761;28;20049;-66
2023/05/24 01:49:30;;;;;;;6.75;2.08;;;12.60;97.10;;;;;;5024325;28;20037;-65
2023/05/24 01:52:06;;;;;;;13.82;2.60;;;12.60;97.40;;;;;;5024304;28;20410;-66
2023/05/24 01:54:38;;;;;;;9.80;2.55;;;12.60;97.20;;;;;;5006941;28;20060;-66
2023/05/24 01:57:09;;;;;;;11.93;3.05;;;12.60;97.50;;;;;;5013240;28;20092;-66
2023/05/24 01:59:38;;;;;;;14.23;2.35;;;12.60;97.50;;;;;;4986254;28;20026;-67
2023/05/24 02:02:04;;;;;;;11.40;2.45;;;12.60;97.40;;;;;;5004408;28;20139;-65
2023/05/24 02:04:30;;;;;;;14.10;2.38;;;12.70;97.60;;;;;;5004476;28;20409;-65
2023/05/24 02:06:56;;;;;;;7.25;2.28;;;12.60;97.20;;;;;;5004500;28;20095;-65
2023/05/24 02:09:22;;;;;;;8.25;1.88;;;12.70;97.10;;;;;;4986207;28;20037;-66
2023/05/24 02:11:49;;;;;;;9.35;2.30;;;12.60;96.70;;;;;;4986052;28;20048;-65
2023/05/24 02:14:16;;;;;;;10.77;2.35;;;12.60;96.60;;;;;;5004137;28;20037;-65
2023/05/24 02:16:45;;;;;;;9.77;2.22;;;12.60;96.40;;;;;;4986404;28;20033;-65
2023/05/24 02:19:11;;;;;;;10.63;2.55;;;12.60;96.10;;;;;;4986139;28;20037;-66
2023/05/24 02:21:40;;;;;;;10.05;2.47;;;12.60;96.00;;;;;;4986423;28;20155;-66
2023/05/24 02:24:06;;;;;;;10.55;2.78;;;12.60;95.90;;;;;;4985963;28;20038;-67
2023/05/24 02:26:32;;;;;;;12.10;2.60;;;12.60;96.00;;;;;;4986027;28;20037;-66
2023/05/24 02:28:58;;;;;;;13.50;2.50;;;12.60;96.10;;;;;;4988419;28;20076;-67
2023/05/24 02:31:27;;;;;;;18.00;2.95;;;12.60;95.80;;;;;;4985792;28;20045;-66
2023/05/24 02:33:54;;;;;;;17.10;2.60;;;12.60;95.80;;;;;;4986487;28;20029;-66
2023/05/24 02:36:22;;;;;;;13.75;2.33;;;12.50;95.70;;;;;;4993300;28;20033;-66
2023/05/24 02:38:48;;;;;;;14.88;3.15;;;12.60;95.80;;;;;;5022217;28;20029;-66
2023/05/24 02:41:16;;;;;;;15.15;3.13;;;12.60;96.10;;;;;;5005535;28;20041;-66
2023/05/24 02:43:46;;;;;;;13.13;2.70;;;12.50;95.60;;;;;;5023115;28;20044;-66
2023/05/24 02:46:13;;;;;;;8.35;2.45;;;12.50;95.30;;;;;;5005788;28;20040;-66
2023/05/24 02:48:39;;;;;;;10.73;2.25;;;12.50;95.40;;;;;;5022716;28;20587;-67
2023/05/24 02:51:06;;;;;;;11.45;2.45;;;12.50;95.60;;;;;;5023020;28;20026;-65
2023/05/24 02:53:32;;;;;;;7.95;2.28;;;12.50;95.80;;;;;;5023110;28;20120;-66
2023/05/24 02:55:58;;;;;;;11.88;2.33;;;12.60;96.20;;;;;;5021507;28;20397;-67
2023/05/24 02:58:27;;;;;;;9.70;2.20;;;12.50;96.40;;;;;;5004461;28;20673;-67
2023/05/24 03:00:54;;;;;;;6.82;2.40;;;12.50;96.10;;;;;;4997667;28;20042;-66
2023/05/24 03:03:20;;;;;;;14.52;2.58;;;12.50;95.90;;;;;;4985115;28;20030;-67
2023/05/24 03:05:46;;;;;;;8.60;2.22;;;12.50;95.70;;;;;;4985174;28;20033;-66
2023/05/24 03:08:12;;;;;;;10.98;2.20;;;12.50;95.90;;;;;;4985150;28;20115;-65
2023/05/24 03:10:38;;;;;;;6.40;1.85;;;12.50;95.90;;;;;;4984994;28;20125;-65
2023/05/24 03:13:05;;;;;;;14.38;2.97;;;12.50;95.40;;;;;;4984867;28;20176;-66
2023/05/24 03:15:31;;;;;;;10.65;2.83;;;12.50;95.50;;;;;;4984910;28;20079;-66
2023/05/24 03:17:57;;;;;;;7.47;2.22;;;12.50;95.60;;;;;;4984739;28;20033;-66
2023/05/24 03:20:23;;;;;;;12.23;2.22;;;12.40;95.50;;;;;;4984712;28;20858;-66
2023/05/24 03:22:50;;;;;;;9.77;3.05;;;12.40;95.80;;;;;;4984944;28;20064;-66
2023/05/24 03:25:16;;;;;;;14.27;3.30;;;12.40;95.90;;;;;;4984553;28;20117;-65
2023/05/24 03:27:42;;;;;;;11.70;2.30;;;12.50;95.50;;;;;;4984295;28;20125;-66
2023/05/24 03:30:08;;;;;;;10.82;2.85;;;12.50;95.80;;;;;;5002353;28;20037;-66
2023/05/24 03:32:42;;;;;;;13.10;2.83;;;12.50;95.40;;;;;;4984784;28;20600;-65
2023/05/24 03:35:10;;;;;;;12.10;2.72;;;12.50;95.40;;;;;;5002409;28;20038;-67
2023/05/24 03:37:37;;;;;;;7.45;2.05;;;12.50;95.60;;;;;;5001836;28;20030;-65
2023/05/24 03:40:04;;;;;;;15.10;2.63;;;12.50;95.30;;;;;;5003678;28;20030;-65
2023/05/24 03:42:55;;;;;;;14.65;2.63;;;12.40;95.10;;;;;;5016673;28;20542;-67
2023/05/24 03:45:34;;;;;;;18.17;2.90;;;12.50;95.50;;;;;;5004303;28;20424;-67
2023/05/24 03:47:59;;;;;;;8.93;2.40;;;12.50;95.50;;;;;;5003490;28;20032;-66
2023/05/24 03:50:25;;;;;;;14.43;2.50;;;12.50;95.20;;;;;;5020875;28;20040;-67
2023/05/24 03:52:52;;;;;;;7.97;2.53;;;12.50;94.90;;;;;;4989009;28;20040;-66
2023/05/24 03:55:17;;;;;;;15.77;3.05;;;12.50;94.80;;;;;;4999831;28;20998;-65
2023/05/24 03:57:43;;;;;;;12.75;2.95;;;12.50;94.60;;;;;;4998502;28;20120;-67
2023/05/24 04:00:09;;;;;;;11.98;2.70;;;12.50;94.70;;;;;;4981379;28;20469;-66
2023/05/24 04:02:39;;;;;;;10.77;2.75;;;12.50;95.00;;;;;;4998891;28;20037;-67
2023/05/24 04:05:09;;;;;;;10.80;2.72;;;12.50;95.00;;;;;;4981813;28;20053;-67
2023/05/24 04:07:39;;;;;;;8.82;2.63;;;12.50;94.90;;;;;;4981559;28;20060;-66
2023/05/24 04:10:06;;;;;;;15.52;2.20;;;12.50;95.10;;;;;;5000038;28;20069;-66
2023/05/24 04:12:33;;;;;;;10.23;3.28;;;12.50;94.70;;;;;;4999821;28;20053;-67
2023/05/24 04:14:59;;;;;;;14.88;3.20;;;12.50;94.90;;;;;;4981829;28;20030;-66
2023/05/24 04:17:26;;;;;;;18.05;3.28;;;12.50;94.60;;;;;;4982688;28;20115;-66
2023/05/24 04:19:53;;;;;;;10.80;3.42;;;12.50;94.40;;;;;;4982370;28;20121;-66
2023/05/24 04:22:19;;;;;;;11.73;2.60;;;12.50;94.40;;;;;;4982747;28;20037;-67
2023/05/24 04:24:46;;;;;;;17.40;3.15;;;12.50;94.30;;;;;;4982170;28;20117;-66
2023/05/24 04:27:12;;;;;;;13.50;3.15;;;12.50;94.40;;;;;;4982670;28;20038;-66
2023/05/24 04:29:39;;;;;;;13.07;3.10;;;12.40;93.80;;;;;;4982000;28;20136;-66
2023/05/24 04:32:05;;;;;;;11.73;2.40;;;12.40;94.30;;;;;;5001844;28;20040;-64
2023/05/24 04:34:34;;;;;;;15.90;2.90;;;12.40;94.40;;;;;;4966555;28;20025;-65
2023/05/24 04:37:01;;;;;;;6.90;2.45;;;12.40;94.40;;;;;;4992468;28;20033;-65
2023/05/24 04:39:29;;;;;;;15.35;3.13;;;12.40;94.10;;;;;;5002958;28;20026;-65
2023/05/24 04:41:56;;;;;;;10.98;2.60;;;12.50;94.10;;;;;;5022160;28;20095;-65
2023/05/24 04:44:23;;;;;;;12.73;3.20;;;12.50;94.30;;;;;;5022027;28;20048;-65
2023/05/24 04:46:49;;;;;;;13.15;2.83;;;12.50;94.60;;;;;;5020739;28;20111;-64
2023/05/24 04:49:15;;;;;;;8.95;2.92;;;12.40;94.10;;;;;;5019376;28;20134;-65
2023/05/24 04:51:41;;;;;;;17.02;3.20;;;12.40;94.10;;;;;;5019329;28;20797;-65
2023/05/24 04:54:09;;;;;;;14.55;2.88;;;12.50;94.20;;;;;;5018057;28;20032;-65
2023/05/24 04:56:37;;;;;;;16.42;2.83;;;12.50;94.40;;;;;;5018464;28;20121;-65
2023/05/24 04:59:04;;;;;;;14.02;2.83;;;12.40;94.40;;;;;;5018810;28;20132;-64
2023/05/24 05:01:31;;;;;;;12.65;2.95;;;12.50;94.30;;;;;;5020188;28;20034;-65
2023/05/24 05:03:57;;;;;;;19.08;3.05;;;12.40;94.80;;;;;;5023981;28;20033;-64
2023/05/24 05:06:23;;;;;;;12.85;2.78;;;12.40;94.90;;;;;;5014872;28;20038;-65
2023/05/24 05:08:50;;;;;;;10.60;3.28;;;12.40;94.70;;;;;;5003485;28;20045;-65
2023/05/24 05:11:17;;;;;;;12.65;2.90;;;12.50;94.70;;;;;;5003727;28;20169;-63
2023/05/24 05:13:44;;;;;;;11.45;2.80;;;12.50;94.60;;;;;;5004938;28;20030;-65
2023/05/24 05:16:10;;;;;;;19.58;3.72;;;12.50;94.90;;;;;;5004362;28;20030;-64
2023/05/24 05:18:36;;;;;;;18.95;3.88;;;12.50;94.60;;;;;;5004103;28;20029;-65
2023/05/24 05:21:02;;;;;;;14.70;3.20;;;12.50;94.60;;;;;;5004635;28;20041;-65
2023/05/24 05:23:29;;;;;;;14.82;3.25;;;12.50;94.90;;;;;;5004470;28;20169;-64
2023/05/24 05:25:55;;;;;;;14.35;2.90;;;12.50;95.00;;;;;;5004074;28;20042;-64
2023/05/24 05:28:21;;;;;;;14.05;2.80;;;12.60;95.00;;;;;;5004114;28;20045;-65
2023/05/24 05:30:47;;;;;;;18.50;3.38;;;12.60;95.00;;;;;;5003799;28;20045;-65
2023/05/24 05:33:13;;;;;;;17.55;3.08;;;12.60;94.80;;;;;;5004100;28;20128;-65
2023/05/24 05:35:38;;;;;;;11.15;2.88;;;12.60;94.70;;;;;;5005429;28;20114;-65
2023/05/24 05:38:04;;;;;;;18.85;3.85;;;12.70;94.80;;;;;;5023238;28;20033;-64
2023/05/24 05:40:30;;;;;;;14.50;3.25;;;12.70;95.10;;;;;;5023686;28;20053;-65
2023/05/24 05:42:56;;;;;;;14.48;3.35;;;12.80;95.20;;;;;;5023630;28;20072;-65
2023/05/24 05:45:23;;;;;;;21.75;3.85;;;12.80;94.70;;;;;;5022553;28;20662;-64
2023/05/24 05:47:48;;;;;;;12.25;3.10;;;12.80;94.70;;;;;;5002317;28;20026;-65
2023/05/24 05:50:14;;;;;;;13.77;3.95;;;12.80;94.90;;;;;;5003524;28;20034;-65
2023/05/24 05:52:40;;;;;;;14.30;3.05;;;12.80;94.80;;;;;;5002798;28;20066;-65
2023/05/24 05:55:07;;;;;;;19.15;4.25;;;12.90;94.80;;;;;;5005564;28;20080;-65
2023/05/24 05:57:34;;;;;;;15.38;3.65;;;12.80;94.90;;;;;;5003338;28;20034;-65
2023/05/24 06:00:00;;;;;;;15.52;3.53;;;12.90;95.10;;;;;;5004978;28;20029;-65
2023/05/24 06:02:26;;;;;;;12.02;3.35;;;12.90;95.10;;;;;;5007739;28;20069;-65
2023/05/24 06:04:52;;;;;;;20.60;4.43;;;13.00;95.10;;;;;;5009158;28;20120;-65
2023/05/24 06:07:17;;;;;;;14.73;3.45;;;13.00;95.20;;;;;;5011177;28;20517;-65
2023/05/24 06:09:43;;;;;;;14.85;3.28;;;13.00;94.90;;;;;;5002494;28;20032;-65
2023/05/24 06:12:09;;;;;;;12.10;3.15;;;13.10;94.90;;;;;;5001959;28;20033;-66
2023/05/24 06:14:37;;;;;;;16.35;3.60;;;13.10;95.10;;;;;;5004831;28;20034;-66
2023/05/24 06:17:06;;;;;;;16.58;3.30;;;13.10;95.10;;;;;;5004729;28;20038;-66
2023/05/24 06:19:32;;;;;;;13.20;3.42;;;13.10;94.80;;;;;;5001454;28;20561;-63
2023/05/24 06:21:58;;;;;;;15.48;3.15;;;13.10;94.60;;;;;;5003355;28;20034;-65
2023/05/24 06:24:24;;;;;;;16.95;3.55;;;13.20;94.60;;;;;;5001853;28;20056;-65
2023/05/24 06:26:51;;;;;;;20.30;3.72;;;13.20;94.60;;;;;;4986526;28;20080;-70
2023/05/24 06:29:21;;;;;;;19.88;4.15;;;13.20;94.60;;;;;;5004594;28;20045;-64
2023/05/24 06:31:48;;;;;;;22.45;4.43;;;13.20;94.10;;;;;;5001125;28;20048;-63
2023/05/24 06:34:19;;;;;;;16.08;3.40;;;13.20;94.30;;;;;;5001452;28;20687;-64
2023/05/24 06:36:47;;;;;;;17.67;4.22;;;13.20;94.50;;;;;;5002845;28;20034;-65
2023/05/24 06:39:14;;;;;;;14.45;3.90;;;13.20;94.60;;;;;;5006163;28;20149;-65
2023/05/24 06:41:44;;;;;;;17.60;4.05;;;13.30;95.00;;;;;;5005808;28;20049;-64
2023/05/24 06:44:11;;;;;;;20.30;4.15;;;13.30;95.00;;;;;;5002002;28;20099;-64
2023/05/24 06:46:36;;;;;;;19.33;3.72;;;13.30;94.40;;;;;;5002945;28;20087;-64
2023/05/24 06:49:02;;;;;;;14.75;3.97;;;13.30;94.10;;;;;;5021430;28;20068;-64
2023/05/24 06:51:28;;;;;;;18.52;4.93;;;13.30;94.50;;;;;;5021271;28;20130;-64
2023/05/24 06:53:54;;;;;;;20.70;4.57;;;13.30;94.40;;;;;;5021954;28;20042;-63
2023/05/24 06:56:20;;;;;;;24.00;4.72;;;13.40;94.30;;;;;;5021750;28;20028;-64
2023/05/24 06:58:46;;;;;;;22.40;4.78;;;13.40;94.30;;;;;;5002762;28;20800;-64
2023/05/24 07:01:13;;;;;;;16.63;3.85;;;13.40;94.30;;;;;;5001580;28;20839;-64
2023/05/24 07:03:39;;;;;;;19.50;4.30;;;13.50;94.00;;;;;;5002348;28;20107;-64
2023/05/24 07:06:05;;;;;;;16.10;3.60;;;13.40;93.90;;;;;;5001557;28;20042;-64
2023/05/24 07:08:31;;;;;;;31.98;5.35;;;13.40;94.10;;;;;;5001258;28;20042;-64
2023/05/24 07:10:56;;;;;;;20.83;3.97;;;13.40;94.10;;;;;;5001265;28;20072;-64
2023/05/24 07:13:22;;;;;;;17.23;4.38;;;13.50;94.10;;;;;;5001541;28;20552;-63
2023/05/24 07:15:48;;;;;;;22.15;4.40;;;13.50;94.30;;;;;;5001724;28;20481;-64
2023/05/24 07:18:14;;;;;;;17.33;3.85;;;13.60;94.20;;;;;;5001109;28;20042;-64
2023/05/24 07:20:40;;;;;;;26.67;4.88;;;13.60;94.60;;;;;;5001304;28;20038;-64
2023/05/24 07:23:05;;;;;;;18.42;4.00;;;13.60;94.80;;;;;;5001401;28;20137;-64
2023/05/24 07:25:32;;;;;;;27.52;5.00;;;13.70;94.60;;;;;;5001514;28;20088;-64
2023/05/24 07:27:59;;;;;;;16.88;4.22;;;13.70;94.40;;;;;;5001994;28;20583;-64
2023/05/24 07:30:25;;;;;;;19.67;4.20;;;13.80;94.40;;;;;;5002281;28;20818;-66
2023/05/24 07:32:51;;;;;;;20.52;4.38;;;13.80;94.10;;;;;;5002795;28;20040;-62
2023/05/24 07:35:17;;;;;;;16.00;3.97;;;13.80;93.50;;;;;;5001623;28;20672;-62
2023/05/24 07:37:42;;;;;;;25.65;4.88;;;13.80;93.70;;;;;;5015626;28;20038;-61
2023/05/24 07:40:10;;;;;;;17.02;3.85;;;13.80;93.60;;;;;;5002174;28;20029;-62
2023/05/24 07:42:39;;;;;;;18.75;5.00;;;13.80;93.90;;;;;;4994561;28;20038;-62
2023/05/24 07:45:09;;;;;;;22.25;4.80;;;13.90;93.80;;;;;;5002649;28;20079;-62
2023/05/24 07:47:36;;;;;;;22.63;4.25;;;13.90;93.30;;;;;;5002616;28;20046;-62
2023/05/24 07:50:02;;;;;;;20.83;4.45;;;13.90;93.20;;;;;;5002588;28;20033;-63
2023/05/24 07:52:28;;;;;;;14.98;4.30;;;14.00;93.60;;;;;;5002232;28;20133;-62
2023/05/24 07:54:54;;;;;;;21.63;4.10;;;14.00;93.60;;;;;;5002694;28;20048;-62
2023/05/24 07:57:20;;;;;;;17.75;3.95;;;14.10;93.40;;;;;;5001063;28;20091;-62
2023/05/24 07:59:46;;;;;;;17.63;4.32;;;14.10;93.50;;;;;;4967078;28;20509;-62
2023/05/24 08:02:12;;;;;;;26.85;4.60;;;14.20;93.40;;;;;;5000839;28;20029;-62
2023/05/24 08:04:39;;;;;;;16.17;4.00;;;14.20;93.60;;;;;;5001649;28;20046;-63
2023/05/24 08:07:05;;;;;;;27.63;5.47;;;14.20;93.40;;;;;;5003415;28;20045;-63
2023/05/24 08:09:37;;;;;;;24.33;5.13;;;14.30;93.40;;;;;;5003654;28;20108;-62
2023/05/24 08:12:06;;;;;;;22.92;5.15;;;14.30;93.60;;;;;;5003855;28;20069;-62
2023/05/24 08:14:32;;;;;;;14.75;3.72;;;14.40;93.30;;;;;;5003743;28;20502;-62
2023/05/24 08:16:59;;;;;;;16.25;4.38;;;14.50;92.80;;;;;;5003702;28;20057;-62
2023/05/24 08:19:26;;;;;;;15.00;4.32;;;14.50;92.90;;;;;;5003443;28;20132;-62
2023/05/24 08:21:56;;;;;;;16.98;4.15;;;14.50;93.10;;;;;;5003028;28;20095;-62
2023/05/24 08:24:22;;;;;;;21.88;4.28;;;14.60;93.10;;;;;;5006212;28;20030;-62
2023/05/24 08:26:50;;;;;;;20.63;4.55;;;14.60;93.00;;;;;;5006631;28;20387;-62
2023/05/24 08:29:16;;;;;;;21.73;3.50;;;14.70;93.00;;;;;;5004982;28;20219;-62
2023/05/24 08:31:43;;;;;;;13.73;3.45;;;14.70;93.00;;;;;;5006430;28;20041;-62
2023/05/24 08:34:09;;;;;;;19.73;4.03;;;14.70;92.60;;;;;;5006185;28;20497;-62
2023/05/24 08:36:36;;;;;;;16.25;3.75;;;14.80;92.40;;;;;;5010386;28;20042;-62
2023/05/24 08:39:02;;;;;;;14.05;3.55;;;14.90;92.50;;;;;;5003900;28;20489;-62
2023/05/24 08:41:28;;;;;;;14.63;3.17;;;14.90;92.60;;;;;;4995353;28;20037;-62
2023/05/24 08:43:58;;;;;;;16.38;4.05;;;15.00;92.60;;;;;;5005382;28;20034;-62
2023/05/24 08:46:25;;;;;;;16.00;3.53;;;15.10;92.60;;;;;;5006135;28;20505;-62
2023/05/24 08:48:51;;;;;;;9.73;3.00;;;15.20;92.20;;;;;;4989803;28;20128;-62
2023/05/24 08:51:17;;;;;;;17.30;3.33;;;15.20;92.00;;;;;;5007823;28;20040;-62
2023/05/24 08:53:49;;;;;;;14.82;3.70;;;15.30;91.10;;;;;;5007620;28;20029;-62
2023/05/24 08:56:18;;;;;;;14.77;3.40;;;15.20;91.20;;;;;;5007626;28;20611;-64
2023/05/24 08:58:45;;;;;;;12.50;2.78;;;15.30;91.50;;;;;;5004044;28;20029;-62
2023/05/24 09:01:13;;;;;;;7.03;2.60;;;15.30;91.30;;;;;;4999958;28;20045;-63
2023/05/24 09:03:41;;;;;;;13.48;2.97;;;15.40;90.80;;;;;;5007424;28;20034;-64
2023/05/24 09:06:08;;;;;;;12.85;2.65;;;15.50;90.70;;;;;;5006319;28;20104;-64
2023/05/24 09:08:37;;;;;;;15.95;3.17;;;15.50;90.40;;;;;;5007753;28;20044;-64
2023/05/24 09:11:06;;;;;;;11.45;2.83;;;15.60;90.40;;;;;;5002341;28;20041;-64
2023/05/24 09:13:33;;;;;;;12.50;3.30;;;15.60;90.20;;;;;;5009360;28;20033;-62
2023/05/24 09:16:00;;;;;;;12.07;3.10;;;15.70;90.20;;;;;;5006143;28;20025;-64
2023/05/24 09:18:26;;;;;;;15.73;3.35;;;15.60;90.20;;;;;;5010766;28;20034;-62
2023/05/24 09:20:52;;;;;;;10.85;3.05;;;15.60;90.70;;;;;;5003077;28;20037;-63
2023/05/24 09:23:17;;;;;;;8.98;2.72;;;15.60;90.80;;;;;;5002521;28;20048;-64
2023/05/24 09:25:44;;;;;;;8.75;2.78;;;15.60;91.50;;;;;;5002116;28;20156;-64
2023/05/24 09:28:13;;;;;;;7.50;2.70;;;15.60;90.50;;;;;;5002228;28;20506;-64
2023/05/24 09:30:43;;;;;;;20.08;3.58;;;15.60;90.50;;;;;;5001919;28;20061;-64
2023/05/24 09:33:10;;;;;;;7.30;2.30;;;15.60;90.40;;;;;;4984851;28;20889;-64
2023/05/24 09:35:35;;;;;;;8.68;2.50;;;15.50;90.70;;;;;;5004495;28;20034;-62
2023/05/24 09:38:02;;;;;;;10.90;3.15;;;15.60;90.30;;;;;;5022333;28;20044;-64
2023/05/24 09:40:29;;;;;;;14.35;3.72;;;15.60;90.50;;;;;;5020226;28;20029;-63
2023/05/24 09:43:04;;;;;;;8.55;2.90;;;15.60;90.00;;;;;;5003332;28;20076;-64
2023/05/24 09:45:30;;;;;;;10.88;2.72;;;15.70;90.10;;;;;;5003582;28;20035;-63
2023/05/24 09:47:56;;;;;;;5.97;2.67;;;15.70;89.40;;;;;;5004169;28;20113;-64
2023/05/24 09:50:22;;;;;;;10.07;2.83;;;15.80;90.10;;;;;;5007247;28;20034;-63
2023/05/24 09:52:50;;;;;;;10.05;2.60;;;15.90;88.40;;;;;;5006935;28;20040;-65
2023/05/24 09:55:19;;;;;;;16.40;2.85;;;15.90;88.90;;;;;;5007006;28;20030;-63
2023/05/24 09:58:01;;;;;;;13.85;2.63;;;16.00;87.70;;;;;;5014737;28;20045;-63
2023/05/24 10:00:27;;;;;;;10.93;2.53;;;16.10;88.10;;;;;;5006733;28;20030;-63
2023/05/24 10:03:05;;;;;;;16.98;2.63;;;16.10;88.70;;;;;;5004974;28;20066;-63
2023/05/24 10:05:32;;;;;;;16.00;3.75;;;16.10;87.90;;;;;;5005157;28;20067;-63
2023/05/24 10:07:59;;;;;;;14.05;3.40;;;16.10;87.70;;;;;;5005462;28;20041;-63
2023/05/24 10:10:29;;;;;;;9.27;3.17;;;16.10;87.60;;;;;;5005287;28;20029;-63
2023/05/24 10:12:56;;;;;;;9.38;2.85;;;16.10;88.50;;;;;;5003925;28;20041;-65
2023/05/24 10:15:22;;;;;;;12.98;3.00;;;16.20;88.90;;;;;;5000635;28;20040;-62
2023/05/24 10:17:48;;;;;;;14.43;3.40;;;16.30;88.00;;;;;;5002807;28;20084;-62
2023/05/24 10:20:15;;;;;;;11.18;3.28;;;16.20;88.00;;;;;;5003034;28;20540;-62
2023/05/24 10:22:44;;;;;;;10.93;2.67;;;16.30;87.00;;;;;;5003668;28;20038;-62
2023/05/24 10:25:26;;;;;;;11.90;2.53;;;16.30;87.90;;;;;;5006623;28;20034;-62
2023/05/24 10:27:58;;;;;;;11.45;3.28;;;16.30;87.60;;;;;;5000534;28;20083;-62
2023/05/24 10:30:56;;;;;;;9.60;2.45;;;16.40;85.80;;;;;;5002414;28;20121;-62
2023/05/24 10:33:23;;;;;;;11.98;2.88;;;16.40;85.60;;;;;;4999460;28;20037;-62
2023/05/24 10:35:50;;;;;;;8.27;2.47;;;16.50;86.00;;;;;;5004651;28;20087;-62
2023/05/24 10:38:19;;;;;;;13.73;4.10;;;16.50;86.20;;;;;;5004848;28;20105;-62
2023/05/24 10:40:45;;;;;;;6.82;2.30;;;16.50;87.60;;;;;;5003450;28;20065;-62
2023/05/24 10:43:11;;;;;;;10.38;2.83;;;16.60;86.70;;;;;;5006635;28;20058;-62
2023/05/24 10:45:38;;;;;;;8.27;2.15;;;16.60;85.20;;;;;;5006019;28;20497;-62
2023/05/24 10:48:28;;;;;;;6.20;2.33;;;16.60;85.10;;;;;;5007944;28;20660;-62
2023/05/24 10:50:53;;;;;;;11.60;2.25;;;16.60;84.80;;;;;;5007010;28;20131;-62
2023/05/24 10:53:25;;;;;;;8.27;2.28;;;16.60;85.60;;;;;;5012270;28;20493;-62
2023/05/24 10:55:59;;;;;;;9.93;2.85;;;16.60;85.10;;;;;;5013805;28;20026;-62
2023/05/24 10:58:36;;;;;;;11.00;2.50;;;16.60;85.90;;;;;;5005470;28;20119;-62
2023/05/24 11:01:03;;;;;;;4.22;1.98;;;16.50;84.50;;;;;;5006634;28;20064;-62
2023/05/24 11:03:35;;;;;;;7.50;2.40;;;16.50;84.20;;;;;;5004437;28;20490;-62
2023/05/24 11:06:01;;;;;;;9.02;2.33;;;16.50;83.60;;;;;;5005913;28;20088;-62
2023/05/24 11:08:32;;;;;;;7.45;2.05;;;16.50;82.90;;;;;;5009201;28;20057;-62
2023/05/24 11:11:25;;;;;;;10.18;1.85;;;16.40;82.70;;;;;;4985123;28;20666;-62
2023/05/24 11:13:56;;;;;;;7.70;1.52;;;16.50;83.70;;;;;;4999285;28;20092;-62
2023/05/24 11:16:36;;;;;;;6.95;1.50;;;16.60;82.80;;;;;;5005337;28;20121;-62
2023/05/24 11:19:23;;;;;;;7.05;1.80;;;16.60;83.80;;;;;;5004881;28;20429;-62
2023/05/24 11:21:50;;;;;;;8.00;1.45;;;16.70;82.10;;;;;;5005104;28;20034;-62
2023/05/24 11:24:17;;;;;;;5.35;1.60;;;16.80;81.70;;;;;;5004683;28;20034;-62
2023/05/24 11:26:44;;;;;;;3.75;1.13;;;16.80;80.70;;;;;;5005112;28;20050;-63
2023/05/24 11:29:16;;;;;;;7.20;1.23;;;16.90;79.20;;;;;;5004682;28;20117;-62
2023/05/24 11:31:49;;;;;;;3.75;1.15;;;16.90;79.70;;;;;;5004672;28;20041;-62
2023/05/24 11:34:16;;;;;;;7.20;1.40;;;17.00;80.40;;;;;;4986948;28;20034;-63
2023/05/24 11:36:42;;;;;;;8.50;1.70;;;17.00;80.50;;;;;;5014437;28;20603;-63
2023/05/24 11:39:08;;;;;;;8.80;1.70;;;17.20;80.10;;;;;;5006117;28;20513;-63
2023/05/24 11:41:38;;;;;;;6.05;1.70;;;17.30;78.40;;;;;;5024366;28;20692;-63
2023/05/24 11:44:07;;;;;;;5.60;1.70;;;17.40;78.30;;;;;;5024056;28;20033;-63
2023/05/24 11:46:33;;;;;;;6.38;1.80;;;17.50;77.70;;;;;;5024601;28;20060;-62
2023/05/24 11:49:00;;;;;;;5.05;1.50;;;17.60;77.70;;;;;;5023869;28;20041;-63
2023/05/24 11:51:30;;;;;;;5.35;1.60;;;17.60;78.40;;;;;;5005697;28;20087;-63
2023/05/24 11:53:57;;;;;;;6.35;1.48;;;17.60;77.00;;;;;;5024211;28;20037;-62
2023/05/24 11:56:29;;;;;;;3.45;1.17;;;17.50;76.10;;;;;;5010881;28;20034;-63
2023/05/24 11:59:20;;;;;;;5.07;1.52;;;17.30;77.20;;;;;;5003488;28;20038;-63
2023/05/24 12:01:46;;;;;;;2.17;0.95;;;17.30;77.20;;;;;;5004215;28;20501;-62
2023/05/24 12:04:12;;;;;;;4.55;1.27;;;17.50;77.90;;;;;;5004155;28;20046;-63
2023/05/24 12:06:42;;;;;;;4.20;1.38;;;17.60;74.40;;;;;;5004286;28;20112;-63
2023/05/24 12:09:12;;;;;;;4.95;1.40;;;17.70;74.20;;;;;;5003741;28;20592;-63
2023/05/24 12:11:39;;;;;;;6.78;1.40;;;17.80;75.60;;;;;;5003394;28;20049;-63
2023/05/24 12:14:07;;;;;;;3.70;1.23;;;17.80;75.30;;;;;;5003763;28;20056;-63
2023/05/24 12:16:34;;;;;;;4.43;1.50;;;17.70;75.30;;;;;;5003575;28;20034;-63
2023/05/24 12:19:00;;;;;;;7.75;1.75;;;17.70;75.60;;;;;;5003545;28;20045;-63
2023/05/24 12:21:30;;;;;;;4.05;1.50;;;17.80;75.60;;;;;;5003253;28;20413;-63
2023/05/24 12:23:56;;;;;;;5.00;2.03;;;17.90;75.30;;;;;;5003675;28;20041;-62
2023/05/24 12:26:22;;;;;;;3.53;1.27;;;17.90;75.70;;;;;;5003690;28;20034;-63
2023/05/24 12:28:54;;;;;;;2.20;1.33;;;18.00;76.30;;;;;;4985432;28;20030;-63
2023/05/24 12:31:20;;;;;;;3.85;1.40;;;17.90;75.70;;;;;;5003305;28;20111;-62
2023/05/24 12:33:46;;;;;;;5.78;1.58;;;18.00;75.70;;;;;;5019242;28;20033;-63
2023/05/24 12:36:12;;;;;;;4.38;1.48;;;18.10;71.60;;;;;;5015625;28;20037;-62
2023/05/24 12:38:38;;;;;;;2.75;1.58;;;18.10;73.40;;;;;;5002757;28;20030;-62
2023/05/24 12:41:05;;;;;;;3.25;1.27;;;18.10;75.80;;;;;;5002964;28;20077;-62
2023/05/24 12:43:31;;;;;;;6.47;1.80;;;18.20;74.10;;;;;;5003141;28;20566;-63
2023/05/24 12:45:57;;;;;;;3.97;1.40;;;18.20;74.00;;;;;;5003287;28;20049;-63